Etusivu
METAR-TAF:

METAR-TAF

Lentoasemat :

Puerto Williams, Chile

Leveyspiiri: 54-56-00S, Pituuspiiri: 067-37-00W, korkeus merenpinnasta: 27 m

Tämänhetkinen sää

Tämä raportti tehtiin 13 tuntia ja 18 minuuttia sitten, kello 20.00 UTC
Tuuli 4 kn lännestä/lounaasta
Lämpötila 10°C
Kosteus 76%
Ilmanpaine 1001 hPa
Näkyvyys 10 km tai enemmän
ei pilviä alle 1500 m:ssä eikä cumulonimbus-pilviä

METAR: SCGZ 162000Z 25004KT CAVOK 10/06 Q1001

Aika: 05:18 (09:18 UTC)


TAF: puuttuu

Säähavainnot ja -ennusteet yli 4000 lentoasemalta (METAR- ja TAF-raportit).

Käytössä olevat sääasemat on merkitty karttaan keltaisilla ja punaisilla pisteillä.

Aseta hiiri pisteen päälle nähdäksesi sääaseman nimen.

Klikkaa sitten nähdäksesi säähavainnot ja -ennusteet.

Kartan vaihtaminen: klikkaa mustalla rastilla varustettuja vihreitä pisteitä, niin voit zoomata sisään; viivalla varustettua vihreää pistettä, niin voit zoomata ulos tai vihreitä nuolia, niin pääset viereisille kartoille.


METAR-TAF: